JRL1T EPLB-EPLB

Flight info

Callsign JRL1T
Flight time 0h 31m
Altitude 4000
Route LUZ
Aircraft A320/M-SDE3FGHIRWY/LB1

Departure

Time 2026-04-11 09:45
Airport Lublin Airport (EPLB)

Arrival

Time 2026-04-11 10:16
Airport Lublin Airport (EPLB)
Time Latitude Longitude Altitude Speed Heading
2026-04-11 09:14 51.23627 22.71374 653 ft 0 kts 167°
2026-04-11 09:36 51.23629 22.71373 653 ft 2 kts 167°
2026-04-11 09:36 51.23655 22.71362 653 ft 4 kts 163°
2026-04-11 09:37 51.23681 22.71350 653 ft 4 kts 168°
2026-04-11 09:37 51.23702 22.71347 653 ft 4 kts 226°
2026-04-11 09:37 51.23708 22.71371 653 ft 4 kts 260°
2026-04-11 09:37 51.23713 22.71413 653 ft 4 kts 257°
2026-04-11 09:38 51.23719 22.71455 653 ft 4 kts 255°
2026-04-11 09:38 51.23726 22.71496 656 ft 4 kts 255°
2026-04-11 09:38 51.23731 22.71522 653 ft 0 kts 257°
2026-04-11 09:39 51.23729 22.71505 653 ft 6 kts 264°
2026-04-11 09:40 51.23756 22.71450 653 ft 7 kts 335°
2026-04-11 09:40 51.23806 22.71427 654 ft 8 kts 347°
2026-04-11 09:40 51.23871 22.71404 650 ft 13 kts 347°
2026-04-11 09:40 51.23893 22.71396 649 ft 2 kts 347°
2026-04-11 09:41 51.23898 22.71395 651 ft 1 kts 347°
2026-04-11 09:41 51.23917 22.71388 647 ft 5 kts 347°
2026-04-11 09:41 51.23967 22.71370 647 ft 9 kts 348°
2026-04-11 09:41 51.24022 22.71412 646 ft 10 kts 62°
2026-04-11 09:42 51.24045 22.71558 646 ft 23 kts 77°
2026-04-11 09:42 51.24088 22.71842 643 ft 28 kts 77°
2026-04-11 09:42 51.24133 22.72159 640 ft 31 kts 77°
2026-04-11 09:43 51.24228 22.72817 639 ft 22 kts 77°
2026-04-11 09:43 51.24266 22.73013 640 ft 14 kts 54°
2026-04-11 09:43 51.24274 22.73074 637 ft 3 kts 155°
2026-04-11 09:43 51.24259 22.73038 641 ft 9 kts 260°
2026-04-11 09:44 51.24242 22.72913 642 ft 19 kts 256°
2026-04-11 09:44 51.24150 22.72263 640 ft 98 kts 257°
2026-04-11 09:44 51.23943 22.70887 721 ft 149 kts 259°
2026-04-11 09:44 51.23676 22.69146 1125 ft 174 kts 260°
2026-04-11 09:45 51.23401 22.67336 1443 ft 167 kts 259°
2026-04-11 09:45 51.23127 22.65541 1766 ft 165 kts 260°
2026-04-11 09:45 51.22861 22.63748 1983 ft 170 kts 260°
2026-04-11 09:45 51.22600 22.61852 2100 ft 178 kts 261°
2026-04-11 09:46 51.22484 22.59895 2260 ft 180 kts 284°
2026-04-11 09:46 51.23255 22.58357 2093 ft 187 kts 337°
2026-04-11 09:46 51.24523 22.58551 1998 ft 195 kts 31°
2026-04-11 09:46 51.25223 22.60388 1917 ft 202 kts 73°
2026-04-11 09:47 51.25543 22.62530 2033 ft 194 kts 74°
2026-04-11 09:47 51.25786 22.64576 2241 ft 187 kts 77°
2026-04-11 09:47 51.25995 22.66643 2264 ft 190 kts 79°
2026-04-11 09:47 51.26161 22.68747 2319 ft 192 kts 77°
2026-04-11 09:48 51.26365 22.70907 2244 ft 201 kts 79°
2026-04-11 09:48 51.26567 22.73150 2159 ft 205 kts 77°
2026-04-11 09:48 51.26825 22.75362 2106 ft 201 kts 76°
2026-04-11 09:48 51.27089 22.77513 2129 ft 192 kts 76°
2026-04-11 09:49 51.27306 22.79524 2205 ft 176 kts 76°
2026-04-11 09:49 51.27511 22.81378 2253 ft 164 kts 78°
2026-04-11 09:49 51.27573 22.83123 2322 ft 155 kts 88°
2026-04-11 09:49 51.27401 22.84769 2349 ft 150 kts 111°
2026-04-11 09:50 51.26648 22.85908 2102 ft 159 kts 169°
2026-04-11 09:50 51.25616 22.85528 1587 ft 158 kts 229°
2026-04-11 09:50 51.25267 22.84010 1323 ft 140 kts 272°
2026-04-11 09:50 51.25281 22.82547 1350 ft 128 kts 273°
2026-04-11 09:51 51.25256 22.81135 1356 ft 126 kts 270°
2026-04-11 09:51 51.25174 22.79734 1336 ft 127 kts 266°
2026-04-11 09:51 51.25025 22.78293 1289 ft 137 kts 262°
2026-04-11 09:51 51.24804 22.76811 1163 ft 136 kts 261°
2026-04-11 09:52 51.24595 22.75353 970 ft 135 kts 261°
2026-04-11 09:52 51.24382 22.73880 776 ft 137 kts 258°
2026-04-11 09:52 51.24166 22.72432 657 ft 130 kts 261°
2026-04-11 09:52 51.23992 22.71157 651 ft 116 kts 257°
2026-04-11 09:53 51.23765 22.69597 835 ft 167 kts 261°
2026-04-11 09:53 51.23538 22.67675 1167 ft 175 kts 264°
2026-04-11 09:53 51.23690 22.65845 1565 ft 167 kts 302°
2026-04-11 09:53 51.24613 22.64746 1828 ft 175 kts 341°
2026-04-11 09:54 51.25820 22.64230 2062 ft 182 kts 346°
2026-04-11 09:54 51.27112 22.64549 2122 ft 204 kts 27°
2026-04-11 09:54 51.28088 22.66192 2088 ft 208 kts 57°
2026-04-11 09:54 51.28581 22.68319 2082 ft 206 kts 72°
2026-04-11 09:55 51.28866 22.70510 2202 ft 197 kts 76°
2026-04-11 09:55 51.29124 22.72610 2303 ft 189 kts 75°
2026-04-11 09:55 51.29386 22.74649 2333 ft 188 kts 75°
2026-04-11 09:55 51.29635 22.76728 2262 ft 192 kts 77°
2026-04-11 09:56 51.29806 22.78829 2280 ft 191 kts 90°
2026-04-11 09:56 51.29336 22.80819 2095 ft 199 kts 130°
2026-04-11 09:56 51.28189 22.81915 1843 ft 186 kts 171°
2026-04-11 09:56 51.26996 22.81770 1924 ft 159 kts 206°
2026-04-11 09:57 51.26157 22.80817 1881 ft 145 kts 230°
2026-04-11 09:57 51.25490 22.79655 1681 ft 141 kts 241°
2026-04-11 09:57 51.25058 22.78312 1394 ft 131 kts 255°
2026-04-11 09:57 51.24823 22.76974 1190 ft 124 kts 261°
2026-04-11 09:58 51.24641 22.75613 1022 ft 126 kts 261°
2026-04-11 09:58 51.24429 22.74239 825 ft 129 kts 260°
2026-04-11 09:58 51.24228 22.72849 670 ft 127 kts 259°
2026-04-11 09:58 51.24050 22.71570 647 ft 105 kts 258°
2026-04-11 09:59 51.23869 22.70216 653 ft 160 kts 259°
2026-04-11 09:59 51.23609 22.68390 1116 ft 174 kts 260°
2026-04-11 09:59 51.23318 22.66497 1471 ft 177 kts 259°
2026-04-11 09:59 51.23078 22.64621 1627 ft 169 kts 275°
2026-04-11 10:00 51.23574 22.63013 1631 ft 168 kts 323°
2026-04-11 10:00 51.24718 22.62387 1484 ft 187 kts 355°
2026-04-11 10:00 51.25972 22.62868 1634 ft 181 kts 30°
2026-04-11 10:00 51.26600 22.64526 1652 ft 184 kts 73°
2026-04-11 10:01 51.26850 22.66551 1691 ft 186 kts 76°
2026-04-11 10:01 51.27065 22.68555 1809 ft 181 kts 78°
2026-04-11 10:01 51.27264 22.70526 1856 ft 182 kts 77°
2026-04-11 10:01 51.27522 22.72486 1947 ft 177 kts 73°
2026-04-11 10:02 51.27788 22.74371 2109 ft 171 kts 73°
2026-04-11 10:02 51.28033 22.76224 2224 ft 169 kts 75°
2026-04-11 10:02 51.28275 22.78044 2314 ft 167 kts 74°
2026-04-11 10:02 51.28531 22.79878 2418 ft 171 kts 73°
2026-04-11 10:03 51.28794 22.81708 2504 ft 170 kts 73°
2026-04-11 10:03 51.29083 22.83587 2568 ft 178 kts 72°
2026-04-11 10:03 51.29383 22.85460 2879 ft 168 kts 71°
2026-04-11 10:03 51.29669 22.87247 3026 ft 170 kts 71°
2026-04-11 10:04 51.29950 22.89141 3044 ft 179 kts 72°
2026-04-11 10:04 51.30221 22.91106 3091 ft 184 kts 73°
2026-04-11 10:04 51.30487 22.93117 3167 ft 190 kts 74°
2026-04-11 10:04 51.30708 22.95193 3316 ft 191 kts 84°
2026-04-11 10:05 51.30398 22.97255 3394 ft 198 kts 118°
2026-04-11 10:05 51.29368 22.98750 3312 ft 204 kts 156°
2026-04-11 10:05 51.28046 22.98858 3156 ft 185 kts 205°
2026-04-11 10:05 51.27190 22.97549 2821 ft 168 kts 256°
2026-04-11 10:06 51.27076 22.95797 2667 ft 149 kts 274°
2026-04-11 10:06 51.27091 22.94227 2699 ft 136 kts 275°
2026-04-11 10:06 51.27048 22.92763 2734 ft 129 kts 269°
2026-04-11 10:06 51.26921 22.91385 2767 ft 126 kts 264°
2026-04-11 10:07 51.26739 22.90001 2783 ft 128 kts 262°
2026-04-11 10:07 51.26541 22.88612 2744 ft 130 kts 262°
2026-04-11 10:07 51.26347 22.87188 2655 ft 131 kts 262°
2026-04-11 10:07 51.26142 22.85783 2519 ft 129 kts 261°
2026-04-11 10:08 51.25919 22.84394 2362 ft 130 kts 261°
2026-04-11 10:08 51.25709 22.82972 2136 ft 134 kts 261°
2026-04-11 10:08 51.25480 22.81515 1858 ft 137 kts 260°
2026-04-11 10:08 51.25257 22.80083 1597 ft 130 kts 261°
2026-04-11 10:09 51.25082 22.78684 1331 ft 128 kts 263°
2026-04-11 10:09 51.24873 22.77314 1199 ft 126 kts 259°
2026-04-11 10:09 51.24670 22.75952 1032 ft 126 kts 263°
2026-04-11 10:09 51.24486 22.74569 877 ft 129 kts 261°
2026-04-11 10:10 51.24281 22.73208 716 ft 121 kts 261°
2026-04-11 10:10 51.24094 22.71979 646 ft 103 kts 266°
2026-04-11 10:10 51.23922 22.70783 936 ft 122 kts 262°
2026-04-11 10:10 51.23780 22.69169 1322 ft 170 kts 266°
2026-04-11 10:11 51.23697 22.67243 1594 ft 183 kts 276°
2026-04-11 10:11 51.24255 22.65332 1635 ft 209 kts 315°
2026-04-11 10:11 51.25677 22.64311 1376 ft 233 kts 354°
2026-04-11 10:11 51.27189 22.64905 1315 ft 225 kts 31°
2026-04-11 10:12 51.28213 22.66781 1361 ft 224 kts 56°
2026-04-11 10:12 51.28862 22.68930 1501 ft 206 kts 71°
2026-04-11 10:12 51.29224 22.71069 1477 ft 192 kts 74°
2026-04-11 10:12 51.29456 22.73014 1563 ft 168 kts 77°
2026-04-11 10:13 51.29620 22.74756 1528 ft 154 kts 78°
2026-04-11 10:13 51.29738 22.76438 1509 ft 152 kts 84°
2026-04-11 10:13 51.29444 22.78084 1481 ft 164 kts 127°
2026-04-11 10:13 51.28523 22.79061 1583 ft 154 kts 170°
2026-04-11 10:14 51.27491 22.78973 1594 ft 147 kts 201°
2026-04-11 10:14 51.26551 22.78421 1652 ft 142 kts 206°
2026-04-11 10:14 51.25721 22.77674 1411 ft 134 kts 223°
2026-04-11 10:14 51.25092 22.76640 1157 ft 130 kts 237°
2026-04-11 10:15 51.24666 22.75399 955 ft 127 kts 251°
2026-04-11 10:15 51.24411 22.74077 810 ft 122 kts 258°
2026-04-11 10:15 51.24223 22.72773 650 ft 119 kts 259°
2026-04-11 10:15 51.24071 22.71717 642 ft 61 kts 257°
2026-04-11 10:16 51.24023 22.71410 648 ft 17 kts 244°
2026-04-11 10:16 51.23896 22.71394 648 ft 20 kts 166°
2026-04-11 10:16 51.23777 22.71442 653 ft 16 kts 168°
2026-04-11 10:16 51.23674 22.71476 653 ft 10 kts 168°
2026-04-11 10:17 51.23644 22.71486 653 ft 0 kts 167°